sensor_id;sensor_type;location;lat;lon;timestamp;P1;durP1;ratioP1;P2;durP2;ratioP2
18316;SDS011;9284;52.298;21.164;2022-08-19T03:15:53;18.88;;;14.00;;
18316;SDS011;9284;52.298;21.164;2022-08-19T03:18:22;16.98;;;13.30;;
18316;SDS011;9284;52.298;21.164;2022-08-19T03:20:51;17.60;;;13.85;;
18316;SDS011;9284;52.298;21.164;2022-08-19T03:23:21;22.42;;;14.93;;
18316;SDS011;9284;52.298;21.164;2022-08-19T03:25:50;18.30;;;14.05;;
18316;SDS011;9284;52.298;21.164;2022-08-19T03:28:40;18.10;;;13.60;;
18316;SDS011;9284;52.298;21.164;2022-08-19T03:31:19;20.38;;;13.68;;
18316;SDS011;9284;52.298;21.164;2022-08-19T03:34:09;18.98;;;13.38;;
18316;SDS011;9284;52.298;21.164;2022-08-19T03:36:39;20.05;;;14.02;;
18316;SDS011;9284;52.298;21.164;2022-08-19T03:39:07;24.48;;;13.65;;
18316;SDS011;9284;52.298;21.164;2022-08-19T03:41:37;18.70;;;13.60;;
18316;SDS011;9284;52.298;21.164;2022-08-19T03:44:11;17.00;;;13.57;;
18316;SDS011;9284;52.298;21.164;2022-08-19T03:46:45;16.92;;;12.77;;
18316;SDS011;9284;52.298;21.164;2022-08-19T03:49:15;18.45;;;12.75;;
18316;SDS011;9284;52.298;21.164;2022-08-19T03:51:45;19.45;;;12.40;;
18316;SDS011;9284;52.298;21.164;2022-08-19T03:54:14;20.33;;;12.57;;
18316;SDS011;9284;52.298;21.164;2022-08-19T03:56:45;18.73;;;12.43;;
18316;SDS011;9284;52.298;21.164;2022-08-19T03:59:16;18.67;;;12.95;;
18316;SDS011;9284;52.298;21.164;2022-08-19T04:01:48;15.30;;;12.40;;
18316;SDS011;9284;52.298;21.164;2022-08-19T04:04:16;20.08;;;12.55;;
18316;SDS011;9284;52.298;21.164;2022-08-19T04:06:45;16.42;;;11.90;;
18316;SDS011;9284;52.298;21.164;2022-08-19T04:09:14;20.88;;;11.70;;
18316;SDS011;9284;52.298;21.164;2022-08-19T04:11:46;15.70;;;11.32;;
18316;SDS011;9284;52.298;21.164;2022-08-19T04:14:16;14.88;;;11.05;;
18316;SDS011;9284;52.298;21.164;2022-08-19T04:16:48;15.50;;;12.05;;
18316;SDS011;9284;52.298;21.164;2022-08-19T04:19:17;16.60;;;11.38;;
18316;SDS011;9284;52.298;21.164;2022-08-19T04:21:47;19.88;;;11.93;;
18316;SDS011;9284;52.298;21.164;2022-08-19T04:24:16;19.70;;;11.50;;
18316;SDS011;9284;52.298;21.164;2022-08-19T04:26:45;18.48;;;11.48;;
18316;SDS011;9284;52.298;21.164;2022-08-19T04:29:15;16.63;;;10.82;;
18316;SDS011;9284;52.298;21.164;2022-08-19T04:31:48;23.10;;;12.38;;
18316;SDS011;9284;52.298;21.164;2022-08-19T04:34:18;14.65;;;11.02;;
18316;SDS011;9284;52.298;21.164;2022-08-19T04:36:49;11.90;;;10.40;;
18316;SDS011;9284;52.298;21.164;2022-08-19T04:39:20;12.70;;;10.23;;
18316;SDS011;9284;52.298;21.164;2022-08-19T04:42:10;19.63;;;11.02;;
18316;SDS011;9284;52.298;21.164;2022-08-19T04:44:56;14.52;;;10.77;;
18316;SDS011;9284;52.298;21.164;2022-08-19T04:47:26;14.70;;;10.82;;
18316;SDS011;9284;52.298;21.164;2022-08-19T04:50:14;17.23;;;10.70;;
18316;SDS011;9284;52.298;21.164;2022-08-19T04:52:44;16.17;;;10.25;;
18316;SDS011;9284;52.298;21.164;2022-08-19T04:55:12;14.65;;;9.90;;
18316;SDS011;9284;52.298;21.164;2022-08-19T04:57:41;12.65;;;9.45;;
18316;SDS011;9284;52.298;21.164;2022-08-19T05:00:10;13.25;;;9.55;;
18316;SDS011;9284;52.298;21.164;2022-08-19T05:02:40;13.88;;;9.38;;
18316;SDS011;9284;52.298;21.164;2022-08-19T05:05:08;13.60;;;9.25;;
18316;SDS011;9284;52.298;21.164;2022-08-19T05:07:36;15.25;;;9.45;;
18316;SDS011;9284;52.298;21.164;2022-08-19T05:10:06;13.48;;;8.77;;
18316;SDS011;9284;52.298;21.164;2022-08-19T05:12:34;15.10;;;9.20;;
18316;SDS011;9284;52.298;21.164;2022-08-19T05:15:03;15.63;;;8.30;;
18316;SDS011;9284;52.298;21.164;2022-08-19T05:17:35;13.52;;;8.05;;
18316;SDS011;9284;52.298;21.164;2022-08-19T05:20:07;12.98;;;7.97;;
18316;SDS011;9284;52.298;21.164;2022-08-19T05:22:53;16.13;;;8.52;;
18316;SDS011;9284;52.298;21.164;2022-08-19T05:25:22;10.40;;;8.02;;
18316;SDS011;9284;52.298;21.164;2022-08-19T05:27:52;10.13;;;7.53;;
18316;SDS011;9284;52.298;21.164;2022-08-19T05:30:20;11.82;;;8.35;;
18316;SDS011;9284;52.298;21.164;2022-08-19T05:33:08;14.88;;;8.02;;
18316;SDS011;9284;52.298;21.164;2022-08-19T05:35:39;12.27;;;8.20;;
18316;SDS011;9284;52.298;21.164;2022-08-19T05:38:07;18.40;;;8.45;;
18316;SDS011;9284;52.298;21.164;2022-08-19T05:40:35;11.38;;;7.47;;
18316;SDS011;9284;52.298;21.164;2022-08-19T05:43:05;11.48;;;8.13;;
18316;SDS011;9284;52.298;21.164;2022-08-19T05:45:37;13.00;;;8.10;;
18316;SDS011;9284;52.298;21.164;2022-08-19T05:48:06;12.63;;;8.57;;
18316;SDS011;9284;52.298;21.164;2022-08-19T05:50:39;13.50;;;8.18;;
18316;SDS011;9284;52.298;21.164;2022-08-19T05:53:08;15.18;;;8.80;;
18316;SDS011;9284;52.298;21.164;2022-08-19T05:55:36;14.82;;;8.18;;
18316;SDS011;9284;52.298;21.164;2022-08-19T05:58:05;9.68;;;7.15;;
18316;SDS011;9284;52.298;21.164;2022-08-19T06:00:34;11.45;;;7.57;;
18316;SDS011;9284;52.298;21.164;2022-08-19T06:03:03;9.77;;;7.15;;
18316;SDS011;9284;52.298;21.164;2022-08-19T06:05:39;14.25;;;8.00;;
18316;SDS011;9284;52.298;21.164;2022-08-19T06:08:17;15.38;;;7.72;;
18316;SDS011;9284;52.298;21.164;2022-08-19T06:10:58;12.82;;;8.70;;
18316;SDS011;9284;52.298;21.164;2022-08-19T06:13:40;13.30;;;8.75;;
18316;SDS011;9284;52.298;21.164;2022-08-19T06:16:08;14.65;;;8.15;;
18316;SDS011;9284;52.298;21.164;2022-08-19T06:18:36;12.88;;;8.48;;
18316;SDS011;9284;52.298;21.164;2022-08-19T06:21:06;13.82;;;8.15;;
18316;SDS011;9284;52.298;21.164;2022-08-19T06:23:34;12.48;;;8.45;;
18316;SDS011;9284;52.298;21.164;2022-08-19T06:26:02;12.15;;;8.57;;
18316;SDS011;9284;52.298;21.164;2022-08-19T06:28:30;14.95;;;8.15;;
18316;SDS011;9284;52.298;21.164;2022-08-19T06:31:00;11.75;;;8.57;;
18316;SDS011;9284;52.298;21.164;2022-08-19T06:33:33;12.07;;;8.57;;
18316;SDS011;9284;52.298;21.164;2022-08-19T06:36:02;13.55;;;8.05;;
18316;SDS011;9284;52.298;21.164;2022-08-19T06:38:32;16.95;;;8.48;;
18316;SDS011;9284;52.298;21.164;2022-08-19T06:41:01;13.60;;;9.07;;
18316;SDS011;9284;52.298;21.164;2022-08-19T06:43:33;13.50;;;8.73;;
18316;SDS011;9284;52.298;21.164;2022-08-19T06:46:11;12.50;;;8.73;;
18316;SDS011;9284;52.298;21.164;2022-08-19T06:48:40;15.60;;;8.75;;
18316;SDS011;9284;52.298;21.164;2022-08-19T06:51:11;13.52;;;8.68;;
18316;SDS011;9284;52.298;21.164;2022-08-19T06:53:46;15.32;;;9.75;;
18316;SDS011;9284;52.298;21.164;2022-08-19T06:56:15;15.75;;;9.15;;
18316;SDS011;9284;52.298;21.164;2022-08-19T06:58:47;13.27;;;8.98;;
18316;SDS011;9284;52.298;21.164;2022-08-19T07:01:17;13.20;;;8.98;;
18316;SDS011;9284;52.298;21.164;2022-08-19T07:03:46;11.13;;;8.65;;
18316;SDS011;9284;52.298;21.164;2022-08-19T07:06:16;15.45;;;9.10;;
18316;SDS011;9284;52.298;21.164;2022-08-19T07:09:08;10.73;;;8.98;;
18316;SDS011;9284;52.298;21.164;2022-08-19T07:11:37;13.43;;;8.35;;
18316;SDS011;9284;52.298;21.164;2022-08-19T07:14:05;9.85;;;8.05;;
18316;SDS011;9284;52.298;21.164;2022-08-19T07:16:45;11.57;;;8.50;;
18316;SDS011;9284;52.298;21.164;2022-08-19T07:19:15;17.17;;;9.07;;
18316;SDS011;9284;52.298;21.164;2022-08-19T07:21:46;12.82;;;8.43;;
18316;SDS011;9284;52.298;21.164;2022-08-19T07:24:17;9.50;;;7.63;;
18316;SDS011;9284;52.298;21.164;2022-08-19T07:26:45;13.82;;;8.30;;
18316;SDS011;9284;52.298;21.164;2022-08-19T07:29:17;9.23;;;8.23;;
18316;SDS011;9284;52.298;21.164;2022-08-19T07:31:49;10.40;;;8.00;;
18316;SDS011;9284;52.298;21.164;2022-08-19T07:34:19;12.07;;;8.07;;
18316;SDS011;9284;52.298;21.164;2022-08-19T07:36:47;11.93;;;8.60;;
18316;SDS011;9284;52.298;21.164;2022-08-19T07:39:18;10.10;;;8.50;;
18316;SDS011;9284;52.298;21.164;2022-08-19T07:41:49;11.75;;;8.30;;
18316;SDS011;9284;52.298;21.164;2022-08-19T07:44:18;10.52;;;7.65;;
18316;SDS011;9284;52.298;21.164;2022-08-19T07:46:48;11.27;;;7.78;;
18316;SDS011;9284;52.298;21.164;2022-08-19T07:49:19;13.73;;;8.13;;
18316;SDS011;9284;52.298;21.164;2022-08-19T07:51:48;11.23;;;7.88;;
18316;SDS011;9284;52.298;21.164;2022-08-19T07:54:20;10.85;;;7.78;;
18316;SDS011;9284;52.298;21.164;2022-08-19T07:56:50;11.50;;;7.97;;
18316;SDS011;9284;52.298;21.164;2022-08-19T07:59:19;11.10;;;7.85;;
18316;SDS011;9284;52.298;21.164;2022-08-19T08:01:48;11.52;;;7.60;;
18316;SDS011;9284;52.298;21.164;2022-08-19T08:04:17;11.07;;;7.97;;
18316;SDS011;9284;52.298;21.164;2022-08-19T08:07:03;13.73;;;8.23;;
18316;SDS011;9284;52.298;21.164;2022-08-19T08:09:58;11.13;;;7.85;;
18316;SDS011;9284;52.298;21.164;2022-08-19T08:12:30;11.70;;;8.10;;
18316;SDS011;9284;52.298;21.164;2022-08-19T08:15:02;11.50;;;8.02;;
18316;SDS011;9284;52.298;21.164;2022-08-19T08:17:38;12.50;;;8.18;;
18316;SDS011;9284;52.298;21.164;2022-08-19T08:20:17;11.05;;;8.13;;
18316;SDS011;9284;52.298;21.164;2022-08-19T08:22:47;14.27;;;8.38;;
18316;SDS011;9284;52.298;21.164;2022-08-19T08:25:34;14.55;;;9.40;;
18316;SDS011;9284;52.298;21.164;2022-08-19T08:28:04;9.68;;;8.55;;
18316;SDS011;9284;52.298;21.164;2022-08-19T08:30:42;13.15;;;8.50;;
18316;SDS011;9284;52.298;21.164;2022-08-19T08:33:12;11.65;;;8.30;;
18316;SDS011;9284;52.298;21.164;2022-08-19T08:35:41;11.52;;;8.70;;
18316;SDS011;9284;52.298;21.164;2022-08-19T08:38:11;12.77;;;8.35;;
18316;SDS011;9284;52.298;21.164;2022-08-19T08:40:44;9.98;;;8.50;;
18316;SDS011;9284;52.298;21.164;2022-08-19T08:43:21;13.40;;;8.63;;
18316;SDS011;9284;52.298;21.164;2022-08-19T08:45:59;11.20;;;8.13;;
18316;SDS011;9284;52.298;21.164;2022-08-19T08:48:32;14.43;;;9.02;;
18316;SDS011;9284;52.298;21.164;2022-08-19T08:51:06;13.75;;;8.68;;
18316;SDS011;9284;52.298;21.164;2022-08-19T08:53:37;12.48;;;8.82;;
18316;SDS011;9284;52.298;21.164;2022-08-19T08:56:09;13.05;;;8.40;;
18316;SDS011;9284;52.298;21.164;2022-08-19T08:58:47;14.77;;;9.13;;
18316;SDS011;9284;52.298;21.164;2022-08-19T09:01:21;11.88;;;8.90;;
18316;SDS011;9284;52.298;21.164;2022-08-19T09:03:55;13.00;;;9.43;;
18316;SDS011;9284;52.298;21.164;2022-08-19T09:06:32;11.25;;;8.38;;
18316;SDS011;9284;52.298;21.164;2022-08-19T09:09:10;12.25;;;9.35;;
18316;SDS011;9284;52.298;21.164;2022-08-19T09:11:49;14.98;;;8.52;;
18316;SDS011;9284;52.298;21.164;2022-08-19T09:14:31;11.77;;;8.82;;
18316;SDS011;9284;52.298;21.164;2022-08-19T09:17:20;17.50;;;9.60;;
18316;SDS011;9284;52.298;21.164;2022-08-19T09:19:57;15.38;;;8.60;;
18316;SDS011;9284;52.298;21.164;2022-08-19T09:22:34;11.95;;;8.50;;
18316;SDS011;9284;52.298;21.164;2022-08-19T09:25:04;14.50;;;7.90;;
18316;SDS011;9284;52.298;21.164;2022-08-19T09:27:35;15.90;;;8.43;;
18316;SDS011;9284;52.298;21.164;2022-08-19T09:30:20;18.00;;;8.27;;
18316;SDS011;9284;52.298;21.164;2022-08-19T09:32:50;16.88;;;8.40;;
18316;SDS011;9284;52.298;21.164;2022-08-19T09:35:20;12.52;;;7.85;;
18316;SDS011;9284;52.298;21.164;2022-08-19T09:37:49;14.68;;;7.93;;
18316;SDS011;9284;52.298;21.164;2022-08-19T09:40:25;12.93;;;8.32;;
18316;SDS011;9284;52.298;21.164;2022-08-19T09:42:57;12.85;;;8.45;;
18316;SDS011;9284;52.298;21.164;2022-08-19T09:45:26;11.85;;;8.40;;
18316;SDS011;9284;52.298;21.164;2022-08-19T09:47:55;10.15;;;7.72;;
18316;SDS011;9284;52.298;21.164;2022-08-19T09:50:24;12.38;;;8.20;;
18316;SDS011;9284;52.298;21.164;2022-08-19T09:52:52;12.70;;;8.35;;
18316;SDS011;9284;52.298;21.164;2022-08-19T09:55:23;11.00;;;8.55;;
18316;SDS011;9284;52.298;21.164;2022-08-19T09:58:00;14.15;;;8.13;;
18316;SDS011;9284;52.298;21.164;2022-08-19T10:00:29;14.05;;;8.68;;
18316;SDS011;9284;52.298;21.164;2022-08-19T10:02:58;12.63;;;8.55;;
18316;SDS011;9284;52.298;21.164;2022-08-19T10:05:26;17.48;;;8.60;;
18316;SDS011;9284;52.298;21.164;2022-08-19T10:08:14;14.00;;;8.05;;
18316;SDS011;9284;52.298;21.164;2022-08-19T10:10:43;13.52;;;9.25;;
18316;SDS011;9284;52.298;21.164;2022-08-19T10:13:14;11.13;;;8.40;;
18316;SDS011;9284;52.298;21.164;2022-08-19T10:15:44;12.73;;;8.18;;
18316;SDS011;9284;52.298;21.164;2022-08-19T10:18:14;12.43;;;8.30;;
18316;SDS011;9284;52.298;21.164;2022-08-19T10:20:44;12.13;;;7.82;;
18316;SDS011;9284;52.298;21.164;2022-08-19T10:23:17;17.33;;;7.93;;
18316;SDS011;9284;52.298;21.164;2022-08-19T10:25:46;13.77;;;7.93;;
18316;SDS011;9284;52.298;21.164;2022-08-19T10:28:16;15.50;;;8.20;;
18316;SDS011;9284;52.298;21.164;2022-08-19T10:30:45;14.98;;;7.80;;
18316;SDS011;9284;52.298;21.164;2022-08-19T10:33:14;12.30;;;7.30;;
18316;SDS011;9284;52.298;21.164;2022-08-19T10:36:02;15.77;;;8.25;;
18316;SDS011;9284;52.298;21.164;2022-08-19T10:38:33;14.50;;;7.95;;
18316;SDS011;9284;52.298;21.164;2022-08-19T10:41:08;11.43;;;7.85;;
18316;SDS011;9284;52.298;21.164;2022-08-19T10:43:39;12.30;;;8.15;;
18316;SDS011;9284;52.298;21.164;2022-08-19T10:46:08;22.25;;;7.95;;
18316;SDS011;9284;52.298;21.164;2022-08-19T10:48:42;12.60;;;7.55;;
18316;SDS011;9284;52.298;21.164;2022-08-19T10:51:11;10.90;;;7.30;;
18316;SDS011;9284;52.298;21.164;2022-08-19T10:53:57;14.07;;;7.65;;
18316;SDS011;9284;52.298;21.164;2022-08-19T10:56:26;9.30;;;7.20;;
18316;SDS011;9284;52.298;21.164;2022-08-19T10:59:13;12.50;;;7.03;;
18316;SDS011;9284;52.298;21.164;2022-08-19T11:01:43;8.45;;;6.65;;
18316;SDS011;9284;52.298;21.164;2022-08-19T11:04:16;10.23;;;6.50;;
18316;SDS011;9284;52.298;21.164;2022-08-19T11:06:45;12.20;;;6.35;;
18316;SDS011;9284;52.298;21.164;2022-08-19T11:09:15;10.73;;;6.40;;
18316;SDS011;9284;52.298;21.164;2022-08-19T11:11:44;11.85;;;6.63;;
18316;SDS011;9284;52.298;21.164;2022-08-19T11:14:17;11.68;;;6.35;;
18316;SDS011;9284;52.298;21.164;2022-08-19T11:16:47;13.82;;;6.20;;
18316;SDS011;9284;52.298;21.164;2022-08-19T11:19:16;11.43;;;6.03;;
18316;SDS011;9284;52.298;21.164;2022-08-19T11:21:46;10.52;;;5.80;;
18316;SDS011;9284;52.298;21.164;2022-08-19T11:24:17;11.63;;;6.22;;
18316;SDS011;9284;52.298;21.164;2022-08-19T11:26:47;17.33;;;6.65;;
18316;SDS011;9284;52.298;21.164;2022-08-19T11:29:19;13.48;;;6.38;;
18316;SDS011;9284;52.298;21.164;2022-08-19T11:31:49;12.35;;;6.28;;
18316;SDS011;9284;52.298;21.164;2022-08-19T11:34:18;15.57;;;6.53;;
18316;SDS011;9284;52.298;21.164;2022-08-19T11:36:49;13.43;;;6.25;;
18316;SDS011;9284;52.298;21.164;2022-08-19T11:39:19;13.63;;;6.20;;
18316;SDS011;9284;52.298;21.164;2022-08-19T11:41:48;10.85;;;6.55;;
18316;SDS011;9284;52.298;21.164;2022-08-19T11:44:18;10.98;;;6.35;;
18316;SDS011;9284;52.298;21.164;2022-08-19T11:46:46;16.55;;;6.38;;
18316;SDS011;9284;52.298;21.164;2022-08-19T11:49:15;8.57;;;6.53;;
18316;SDS011;9284;52.298;21.164;2022-08-19T11:51:45;13.38;;;6.05;;
18316;SDS011;9284;52.298;21.164;2022-08-19T11:54:14;11.38;;;6.45;;
18316;SDS011;9284;52.298;21.164;2022-08-19T11:56:43;15.48;;;6.25;;
18316;SDS011;9284;52.298;21.164;2022-08-19T11:59:14;13.82;;;6.43;;
18316;SDS011;9284;52.298;21.164;2022-08-19T12:01:43;10.80;;;5.97;;
18316;SDS011;9284;52.298;21.164;2022-08-19T12:04:12;9.48;;;6.30;;
18316;SDS011;9284;52.298;21.164;2022-08-19T12:06:43;13.95;;;6.60;;
18316;SDS011;9284;52.298;21.164;2022-08-19T12:09:12;9.52;;;6.57;;
18316;SDS011;9284;52.298;21.164;2022-08-19T12:11:41;14.65;;;6.40;;
18316;SDS011;9284;52.298;21.164;2022-08-19T12:14:10;10.63;;;6.05;;
18316;SDS011;9284;52.298;21.164;2022-08-19T12:16:43;10.40;;;6.10;;
18316;SDS011;9284;52.298;21.164;2022-08-19T12:19:17;17.48;;;6.45;;
18316;SDS011;9284;52.298;21.164;2022-08-19T12:21:48;10.10;;;5.90;;
18316;SDS011;9284;52.298;21.164;2022-08-19T12:24:16;8.65;;;6.20;;
18316;SDS011;9284;52.298;21.164;2022-08-19T12:26:49;13.50;;;6.20;;
18316;SDS011;9284;52.298;21.164;2022-08-19T12:29:20;14.73;;;5.90;;
18316;SDS011;9284;52.298;21.164;2022-08-19T12:31:56;9.88;;;5.78;;
18316;SDS011;9284;52.298;21.164;2022-08-19T12:34:30;12.30;;;7.00;;
18316;SDS011;9284;52.298;21.164;2022-08-19T12:37:00;10.27;;;5.55;;
18316;SDS011;9284;52.298;21.164;2022-08-19T12:39:33;10.70;;;6.05;;
18316;SDS011;9284;52.298;21.164;2022-08-19T12:42:03;16.65;;;6.60;;
18316;SDS011;9284;52.298;21.164;2022-08-19T12:44:31;13.93;;;5.50;;
18316;SDS011;9284;52.298;21.164;2022-08-19T12:47:03;12.75;;;5.90;;
18316;SDS011;9284;52.298;21.164;2022-08-19T12:49:35;14.32;;;6.07;;
18316;SDS011;9284;52.298;21.164;2022-08-19T12:52:21;8.73;;;5.65;;
18316;SDS011;9284;52.298;21.164;2022-08-19T12:54:51;8.82;;;5.45;;
18316;SDS011;9284;52.298;21.164;2022-08-19T12:57:21;13.40;;;5.80;;
18316;SDS011;9284;52.298;21.164;2022-08-19T12:59:59;15.57;;;6.20;;
18316;SDS011;9284;52.298;21.164;2022-08-19T13:02:32;10.68;;;7.13;;
18316;SDS011;9284;52.298;21.164;2022-08-19T13:05:05;11.63;;;5.70;;
18316;SDS011;9284;52.298;21.164;2022-08-19T13:07:34;15.40;;;5.43;;
18316;SDS011;9284;52.298;21.164;2022-08-19T13:10:04;10.35;;;5.50;;
18316;SDS011;9284;52.298;21.164;2022-08-19T13:12:33;10.02;;;5.60;;
18316;SDS011;9284;52.298;21.164;2022-08-19T13:15:02;10.15;;;5.65;;
18316;SDS011;9284;52.298;21.164;2022-08-19T13:17:38;8.00;;;5.03;;
18316;SDS011;9284;52.298;21.164;2022-08-19T13:20:08;11.18;;;5.63;;
18316;SDS011;9284;52.298;21.164;2022-08-19T13:22:37;16.50;;;6.15;;
18316;SDS011;9284;52.298;21.164;2022-08-19T13:25:07;10.60;;;5.40;;
18316;SDS011;9284;52.298;21.164;2022-08-19T13:27:36;8.15;;;5.20;;
18316;SDS011;9284;52.298;21.164;2022-08-19T13:30:05;12.50;;;5.22;;
18316;SDS011;9284;52.298;21.164;2022-08-19T13:32:54;10.48;;;5.30;;
18316;SDS011;9284;52.298;21.164;2022-08-19T13:35:43;12.88;;;5.55;;
18316;SDS011;9284;52.298;21.164;2022-08-19T13:38:14;11.02;;;5.50;;
18316;SDS011;9284;52.298;21.164;2022-08-19T13:40:44;10.85;;;5.53;;
18316;SDS011;9284;52.298;21.164;2022-08-19T13:43:13;9.00;;;5.30;;
18316;SDS011;9284;52.298;21.164;2022-08-19T13:45:49;10.93;;;5.80;;
18316;SDS011;9284;52.298;21.164;2022-08-19T13:48:20;12.65;;;5.40;;
18316;SDS011;9284;52.298;21.164;2022-08-19T13:50:49;14.55;;;6.00;;
18316;SDS011;9284;52.298;21.164;2022-08-19T13:53:18;8.50;;;5.65;;
18316;SDS011;9284;52.298;21.164;2022-08-19T13:55:46;14.18;;;6.32;;
18316;SDS011;9284;52.298;21.164;2022-08-19T13:58:16;11.48;;;5.13;;
18316;SDS011;9284;52.298;21.164;2022-08-19T14:00:45;11.07;;;5.55;;
18316;SDS011;9284;52.298;21.164;2022-08-19T14:03:14;12.13;;;6.22;;
18316;SDS011;9284;52.298;21.164;2022-08-19T14:05:44;10.15;;;6.00;;
18316;SDS011;9284;52.298;21.164;2022-08-19T14:08:13;10.75;;;5.78;;
18316;SDS011;9284;52.298;21.164;2022-08-19T14:10:41;13.65;;;6.25;;
18316;SDS011;9284;52.298;21.164;2022-08-19T14:13:13;8.70;;;5.32;;
18316;SDS011;9284;52.298;21.164;2022-08-19T14:15:42;10.30;;;5.63;;
18316;SDS011;9284;52.298;21.164;2022-08-19T14:18:10;8.65;;;5.38;;
18316;SDS011;9284;52.298;21.164;2022-08-19T14:20:38;18.05;;;5.95;;
18316;SDS011;9284;52.298;21.164;2022-08-19T14:23:08;9.07;;;5.22;;
18316;SDS011;9284;52.298;21.164;2022-08-19T14:25:37;7.28;;;5.72;;
18316;SDS011;9284;52.298;21.164;2022-08-19T14:28:05;9.70;;;5.40;;
18316;SDS011;9284;52.298;21.164;2022-08-19T14:30:34;9.45;;;5.35;;
18316;SDS011;9284;52.298;21.164;2022-08-19T14:33:05;10.93;;;5.57;;
18316;SDS011;9284;52.298;21.164;2022-08-19T14:35:35;9.85;;;5.65;;
18316;SDS011;9284;52.298;21.164;2022-08-19T14:38:04;12.70;;;5.47;;
18316;SDS011;9284;52.298;21.164;2022-08-19T14:40:35;11.00;;;5.80;;
18316;SDS011;9284;52.298;21.164;2022-08-19T14:43:05;12.80;;;5.72;;
18316;SDS011;9284;52.298;21.164;2022-08-19T14:45:34;14.23;;;5.90;;
18316;SDS011;9284;52.298;21.164;2022-08-19T14:48:06;11.18;;;6.03;;
18316;SDS011;9284;52.298;21.164;2022-08-19T14:50:44;12.10;;;5.50;;
18316;SDS011;9284;52.298;21.164;2022-08-19T14:53:12;10.50;;;5.78;;
18316;SDS011;9284;52.298;21.164;2022-08-19T14:55:45;10.77;;;5.97;;
18316;SDS011;9284;52.298;21.164;2022-08-19T14:58:14;10.93;;;5.38;;
18316;SDS011;9284;52.298;21.164;2022-08-19T15:00:56;12.07;;;5.55;;
18316;SDS011;9284;52.298;21.164;2022-08-19T15:03:25;9.98;;;5.50;;
18316;SDS011;9284;52.298;21.164;2022-08-19T15:05:53;11.70;;;5.43;;
18316;SDS011;9284;52.298;21.164;2022-08-19T15:08:22;17.65;;;5.70;;
18316;SDS011;9284;52.298;21.164;2022-08-19T15:10:52;9.15;;;5.90;;
18316;SDS011;9284;52.298;21.164;2022-08-19T15:13:21;8.70;;;5.50;;
18316;SDS011;9284;52.298;21.164;2022-08-19T15:15:50;9.20;;;5.45;;
18316;SDS011;9284;52.298;21.164;2022-08-19T15:18:19;11.38;;;5.50;;
18316;SDS011;9284;52.298;21.164;2022-08-19T15:20:48;15.35;;;5.72;;
18316;SDS011;9284;52.298;21.164;2022-08-19T15:23:17;9.95;;;6.50;;
18316;SDS011;9284;52.298;21.164;2022-08-19T15:25:46;13.23;;;5.70;;
18316;SDS011;9284;52.298;21.164;2022-08-19T15:28:19;12.15;;;5.38;;
18316;SDS011;9284;52.298;21.164;2022-08-19T15:30:48;7.88;;;4.93;;
18316;SDS011;9284;52.298;21.164;2022-08-19T15:33:17;7.70;;;5.15;;
18316;SDS011;9284;52.298;21.164;2022-08-19T15:35:46;7.05;;;5.28;;
18316;SDS011;9284;52.298;21.164;2022-08-19T15:38:17;10.50;;;5.53;;
18316;SDS011;9284;52.298;21.164;2022-08-19T15:40:47;7.20;;;5.20;;
18316;SDS011;9284;52.298;21.164;2022-08-19T15:43:17;6.40;;;4.93;;
18316;SDS011;9284;52.298;21.164;2022-08-19T15:45:48;8.90;;;5.43;;
18316;SDS011;9284;52.298;21.164;2022-08-19T15:48:16;12.95;;;5.72;;
18316;SDS011;9284;52.298;21.164;2022-08-19T15:50:44;7.13;;;4.70;;
18316;SDS011;9284;52.298;21.164;2022-08-19T15:53:13;8.43;;;4.85;;
18316;SDS011;9284;52.298;21.164;2022-08-19T15:55:41;7.63;;;5.15;;
18316;SDS011;9284;52.298;21.164;2022-08-19T15:58:14;5.13;;;4.55;;
18316;SDS011;9284;52.298;21.164;2022-08-19T16:01:03;13.18;;;5.03;;
18316;SDS011;9284;52.298;21.164;2022-08-19T16:03:53;10.43;;;5.15;;
18316;SDS011;9284;52.298;21.164;2022-08-19T16:06:42;7.28;;;5.03;;
18316;SDS011;9284;52.298;21.164;2022-08-19T16:09:13;10.38;;;4.90;;
18316;SDS011;9284;52.298;21.164;2022-08-19T16:11:43;9.32;;;4.78;;
18316;SDS011;9284;52.298;21.164;2022-08-19T16:14:22;9.82;;;5.13;;
18316;SDS011;9284;52.298;21.164;2022-08-19T16:16:52;7.63;;;4.60;;
18316;SDS011;9284;52.298;21.164;2022-08-19T16:19:22;11.07;;;4.68;;
18316;SDS011;9284;52.298;21.164;2022-08-19T16:21:52;12.82;;;5.13;;
18316;SDS011;9284;52.298;21.164;2022-08-19T16:24:22;8.95;;;4.88;;
18316;SDS011;9284;52.298;21.164;2022-08-19T16:26:53;8.82;;;4.93;;
18316;SDS011;9284;52.298;21.164;2022-08-19T16:29:21;5.90;;;4.93;;
18316;SDS011;9284;52.298;21.164;2022-08-19T16:32:02;12.85;;;4.95;;
18316;SDS011;9284;52.298;21.164;2022-08-19T16:34:31;7.80;;;5.45;;
18316;SDS011;9284;52.298;21.164;2022-08-19T16:37:00;5.60;;;4.55;;
18316;SDS011;9284;52.298;21.164;2022-08-19T16:39:28;9.25;;;5.00;;
18316;SDS011;9284;52.298;21.164;2022-08-19T16:41:57;9.52;;;4.78;;
18316;SDS011;9284;52.298;21.164;2022-08-19T16:44:25;6.57;;;4.55;;
18316;SDS011;9284;52.298;21.164;2022-08-19T16:46:55;12.13;;;5.47;;
18316;SDS011;9284;52.298;21.164;2022-08-19T16:49:27;6.97;;;4.53;;
18316;SDS011;9284;52.298;21.164;2022-08-19T16:52:16;13.52;;;5.10;;
18316;SDS011;9284;52.298;21.164;2022-08-19T16:54:45;8.60;;;4.35;;
18316;SDS011;9284;52.298;21.164;2022-08-19T16:57:14;8.63;;;4.88;;
18316;SDS011;9284;52.298;21.164;2022-08-19T16:59:42;5.93;;;4.60;;
18316;SDS011;9284;52.298;21.164;2022-08-19T17:02:14;8.85;;;4.85;;
18316;SDS011;9284;52.298;21.164;2022-08-19T17:04:44;9.85;;;5.30;;
18316;SDS011;9284;52.298;21.164;2022-08-19T17:07:24;9.75;;;5.22;;
18316;SDS011;9284;52.298;21.164;2022-08-19T17:09:52;12.35;;;5.40;;
18316;SDS011;9284;52.298;21.164;2022-08-19T17:12:21;10.75;;;5.00;;
18316;SDS011;9284;52.298;21.164;2022-08-19T17:14:57;12.48;;;5.00;;
18316;SDS011;9284;52.298;21.164;2022-08-19T17:17:25;8.00;;;4.57;;
18316;SDS011;9284;52.298;21.164;2022-08-19T17:19:56;7.43;;;5.10;;
18316;SDS011;9284;52.298;21.164;2022-08-19T17:22:25;9.80;;;5.75;;
18316;SDS011;9284;52.298;21.164;2022-08-19T17:24:54;9.20;;;5.25;;
18316;SDS011;9284;52.298;21.164;2022-08-19T17:27:24;11.90;;;5.22;;
18316;SDS011;9284;52.298;21.164;2022-08-19T17:29:58;10.48;;;5.07;;
18316;SDS011;9284;52.298;21.164;2022-08-19T17:32:28;10.18;;;5.53;;
18316;SDS011;9284;52.298;21.164;2022-08-19T17:35:01;11.82;;;5.18;;
18316;SDS011;9284;52.298;21.164;2022-08-19T17:37:30;8.15;;;4.88;;
18316;SDS011;9284;52.298;21.164;2022-08-19T17:40:00;8.20;;;4.70;;
18316;SDS011;9284;52.298;21.164;2022-08-19T17:42:28;8.05;;;4.82;;
18316;SDS011;9284;52.298;21.164;2022-08-19T17:44:57;6.72;;;4.78;;
18316;SDS011;9284;52.298;21.164;2022-08-19T17:47:25;9.10;;;4.90;;
18316;SDS011;9284;52.298;21.164;2022-08-19T17:49:54;10.32;;;4.78;;
18316;SDS011;9284;52.298;21.164;2022-08-19T17:52:24;9.35;;;4.88;;
18316;SDS011;9284;52.298;21.164;2022-08-19T17:54:52;9.63;;;4.55;;
18316;SDS011;9284;52.298;21.164;2022-08-19T17:57:20;8.38;;;4.30;;
18316;SDS011;9284;52.298;21.164;2022-08-19T17:59:48;7.75;;;4.85;;
18316;SDS011;9284;52.298;21.164;2022-08-19T18:02:18;6.80;;;4.50;;
18316;SDS011;9284;52.298;21.164;2022-08-19T18:04:47;7.78;;;4.50;;
18316;SDS011;9284;52.298;21.164;2022-08-19T18:07:15;9.05;;;4.88;;
18316;SDS011;9284;52.298;21.164;2022-08-19T18:09:48;8.32;;;4.40;;
18316;SDS011;9284;52.298;21.164;2022-08-19T18:12:21;11.10;;;4.95;;
18316;SDS011;9284;52.298;21.164;2022-08-19T18:14:52;8.75;;;4.38;;
18316;SDS011;9284;52.298;21.164;2022-08-19T18:17:20;5.75;;;4.55;;